sensor_id;sensor_type;location;lat;lon;timestamp;pressure;altitude;pressure_sealevel;temperature;humidity
13407;BME280;6774;48.208;10.766;2022-09-09T00:01:05;95337.09;;;13.74;84.43
13407;BME280;6774;48.208;10.766;2022-09-09T00:03:43;95338.97;;;13.67;84.56
13407;BME280;6774;48.208;10.766;2022-09-09T00:06:18;95335.28;;;13.68;84.53
13407;BME280;6774;48.208;10.766;2022-09-09T00:09:02;95340.44;;;13.63;84.64
13407;BME280;6774;48.208;10.766;2022-09-09T00:11:40;95335.31;;;13.61;84.87
13407;BME280;6774;48.208;10.766;2022-09-09T00:14:13;95340.25;;;13.51;84.92
13407;BME280;6774;48.208;10.766;2022-09-09T00:16:48;95329.03;;;13.56;84.86
13407;BME280;6774;48.208;10.766;2022-09-09T00:19:23;95337.38;;;13.59;85.09
13407;BME280;6774;48.208;10.766;2022-09-09T00:22:00;95332.50;;;13.56;85.20
13407;BME280;6774;48.208;10.766;2022-09-09T00:24:33;95333.91;;;13.52;85.15
13407;BME280;6774;48.208;10.766;2022-09-09T00:27:10;95332.28;;;13.58;84.65
13407;BME280;6774;48.208;10.766;2022-09-09T00:29:43;95339.44;;;13.51;85.15
13407;BME280;6774;48.208;10.766;2022-09-09T00:32:14;95338.63;;;13.44;85.38
13407;BME280;6774;48.208;10.766;2022-09-09T00:34:48;95336.25;;;13.35;85.68
13407;BME280;6774;48.208;10.766;2022-09-09T00:37:18;95337.88;;;13.36;86.51
13407;BME280;6774;48.208;10.766;2022-09-09T00:39:47;95333.75;;;13.41;85.78
13407;BME280;6774;48.208;10.766;2022-09-09T00:42:23;95321.91;;;13.50;85.63
13407;BME280;6774;48.208;10.766;2022-09-09T00:44:59;95341.28;;;13.50;85.91
13407;BME280;6774;48.208;10.766;2022-09-09T00:47:39;95333.97;;;13.46;86.26
13407;BME280;6774;48.208;10.766;2022-09-09T00:50:20;95330.88;;;13.49;86.41
13407;BME280;6774;48.208;10.766;2022-09-09T00:53:02;95324.16;;;13.46;86.52
13407;BME280;6774;48.208;10.766;2022-09-09T00:55:40;95328.88;;;13.37;86.90
13407;BME280;6774;48.208;10.766;2022-09-09T00:58:12;95322.94;;;13.49;86.79
13407;BME280;6774;48.208;10.766;2022-09-09T01:00:42;95317.41;;;13.57;86.75
13407;BME280;6774;48.208;10.766;2022-09-09T01:03:20;95311.66;;;13.60;86.63
13407;BME280;6774;48.208;10.766;2022-09-09T01:06:00;95319.22;;;13.63;86.56
13407;BME280;6774;48.208;10.766;2022-09-09T01:09:04;95325.50;;;13.62;86.99
13407;BME280;6774;48.208;10.766;2022-09-09T01:11:37;95322.25;;;13.66;87.37
13407;BME280;6774;48.208;10.766;2022-09-09T01:14:20;95321.78;;;13.76;87.23
13407;BME280;6774;48.208;10.766;2022-09-09T01:16:54;95323.38;;;13.84;87.15
13407;BME280;6774;48.208;10.766;2022-09-09T01:19:33;95319.69;;;13.91;86.73
13407;BME280;6774;48.208;10.766;2022-09-09T01:22:11;95320.44;;;13.99;86.52
13407;BME280;6774;48.208;10.766;2022-09-09T01:24:53;95317.97;;;14.04;86.25
13407;BME280;6774;48.208;10.766;2022-09-09T01:27:46;95317.97;;;14.04;86.19
13407;BME280;6774;48.208;10.766;2022-09-09T01:30:17;95307.53;;;14.09;86.18
13407;BME280;6774;48.208;10.766;2022-09-09T01:32:48;95318.31;;;14.14;86.30
13407;BME280;6774;48.208;10.766;2022-09-09T01:35:34;95319.09;;;14.21;86.39
13407;BME280;6774;48.208;10.766;2022-09-09T01:38:07;95307.66;;;14.20;86.36
13407;BME280;6774;48.208;10.766;2022-09-09T01:40:35;95308.03;;;14.24;86.67
13407;BME280;6774;48.208;10.766;2022-09-09T01:43:06;95315.13;;;14.30;86.30
13407;BME280;6774;48.208;10.766;2022-09-09T01:45:35;95314.06;;;14.38;86.11
13407;BME280;6774;48.208;10.766;2022-09-09T01:48:04;95316.94;;;14.36;86.03
13407;BME280;6774;48.208;10.766;2022-09-09T01:50:44;95311.81;;;14.35;85.93
13407;BME280;6774;48.208;10.766;2022-09-09T01:53:14;95304.31;;;14.32;85.78
13407;BME280;6774;48.208;10.766;2022-09-09T01:55:48;95300.66;;;14.26;85.85
13407;BME280;6774;48.208;10.766;2022-09-09T01:58:29;95292.09;;;14.24;85.80
13407;BME280;6774;48.208;10.766;2022-09-09T02:01:06;95292.44;;;14.34;85.64
13407;BME280;6774;48.208;10.766;2022-09-09T02:03:41;95299.22;;;14.30;85.63
13407;BME280;6774;48.208;10.766;2022-09-09T02:06:26;95303.59;;;14.18;85.87
13407;BME280;6774;48.208;10.766;2022-09-09T02:09:04;95290.88;;;14.27;85.26
13407;BME280;6774;48.208;10.766;2022-09-09T02:11:34;95294.94;;;14.29;85.08
13407;BME280;6774;48.208;10.766;2022-09-09T02:14:35;95295.34;;;14.26;85.03
13407;BME280;6774;48.208;10.766;2022-09-09T02:17:08;95292.69;;;14.26;85.04
13407;BME280;6774;48.208;10.766;2022-09-09T02:20:08;95301.53;;;14.20;85.32
13407;BME280;6774;48.208;10.766;2022-09-09T02:23:07;95289.72;;;14.16;85.41
13407;BME280;6774;48.208;10.766;2022-09-09T02:25:40;95291.06;;;14.25;85.56
13407;BME280;6774;48.208;10.766;2022-09-09T02:28:20;95293.69;;;14.32;85.73
13407;BME280;6774;48.208;10.766;2022-09-09T02:30:52;95293.06;;;14.36;85.84
13407;BME280;6774;48.208;10.766;2022-09-09T02:33:33;95285.00;;;14.49;86.00
13407;BME280;6774;48.208;10.766;2022-09-09T02:36:06;95293.78;;;14.50;85.94
13407;BME280;6774;48.208;10.766;2022-09-09T02:38:40;95297.84;;;14.52;85.84
13407;BME280;6774;48.208;10.766;2022-09-09T02:41:13;95285.19;;;14.55;85.97
13407;BME280;6774;48.208;10.766;2022-09-09T02:43:41;95282.53;;;14.55;86.14
13407;BME280;6774;48.208;10.766;2022-09-09T02:46:24;95281.03;;;14.59;86.25
13407;BME280;6774;48.208;10.766;2022-09-09T02:49:00;95289.13;;;14.45;85.52
13407;BME280;6774;48.208;10.766;2022-09-09T02:51:40;95289.97;;;14.39;84.98
13407;BME280;6774;48.208;10.766;2022-09-09T02:54:20;95289.63;;;14.29;84.63
13407;BME280;6774;48.208;10.766;2022-09-09T02:56:53;95291.13;;;14.18;84.58
13407;BME280;6774;48.208;10.766;2022-09-09T02:59:30;95289.03;;;13.95;84.46
13407;BME280;6774;48.208;10.766;2022-09-09T03:01:59;95293.16;;;13.91;84.87
13407;BME280;6774;48.208;10.766;2022-09-09T03:04:28;95286.72;;;13.74;85.08
13407;BME280;6774;48.208;10.766;2022-09-09T03:06:56;95297.72;;;13.71;85.29
13407;BME280;6774;48.208;10.766;2022-09-09T03:09:25;95289.97;;;13.76;85.17
13407;BME280;6774;48.208;10.766;2022-09-09T03:11:55;95296.88;;;13.77;85.13
13407;BME280;6774;48.208;10.766;2022-09-09T03:14:25;95293.88;;;13.74;85.61
13407;BME280;6774;48.208;10.766;2022-09-09T03:16:53;95296.31;;;13.75;85.48
13407;BME280;6774;48.208;10.766;2022-09-09T03:19:25;95287.31;;;13.76;85.65
13407;BME280;6774;48.208;10.766;2022-09-09T03:21:54;95286.25;;;13.84;85.23
13407;BME280;6774;48.208;10.766;2022-09-09T03:24:22;95287.75;;;13.73;85.65
13407;BME280;6774;48.208;10.766;2022-09-09T03:26:50;95291.25;;;13.67;86.05
13407;BME280;6774;48.208;10.766;2022-09-09T03:29:18;95292.53;;;13.51;86.35
13407;BME280;6774;48.208;10.766;2022-09-09T03:31:46;95285.38;;;13.52;86.22
13407;BME280;6774;48.208;10.766;2022-09-09T03:34:15;95285.81;;;13.49;86.25
13407;BME280;6774;48.208;10.766;2022-09-09T03:36:44;95283.59;;;13.46;86.17
13407;BME280;6774;48.208;10.766;2022-09-09T03:39:12;95281.94;;;13.51;86.02
13407;BME280;6774;48.208;10.766;2022-09-09T03:41:42;95286.00;;;13.54;86.06
13407;BME280;6774;48.208;10.766;2022-09-09T03:44:14;95292.94;;;13.55;86.26
13407;BME280;6774;48.208;10.766;2022-09-09T03:46:42;95278.66;;;13.56;85.96
13407;BME280;6774;48.208;10.766;2022-09-09T03:49:10;95281.91;;;13.58;86.38
13407;BME280;6774;48.208;10.766;2022-09-09T03:51:39;95276.59;;;13.58;86.40
13407;BME280;6774;48.208;10.766;2022-09-09T03:54:08;95274.13;;;13.63;86.34
13407;BME280;6774;48.208;10.766;2022-09-09T03:56:37;95266.56;;;13.66;86.47
13407;BME280;6774;48.208;10.766;2022-09-09T03:59:09;95267.56;;;13.72;86.45
13407;BME280;6774;48.208;10.766;2022-09-09T04:01:37;95274.50;;;13.66;86.42
13407;BME280;6774;48.208;10.766;2022-09-09T04:04:06;95268.53;;;13.78;87.16
13407;BME280;6774;48.208;10.766;2022-09-09T04:06:35;95275.63;;;13.90;87.63
13407;BME280;6774;48.208;10.766;2022-09-09T04:09:04;95274.34;;;14.00;87.20
13407;BME280;6774;48.208;10.766;2022-09-09T04:11:34;95270.81;;;14.06;87.09
13407;BME280;6774;48.208;10.766;2022-09-09T04:14:02;95271.56;;;14.13;86.91
13407;BME280;6774;48.208;10.766;2022-09-09T04:16:32;95273.41;;;14.12;87.32
13407;BME280;6774;48.208;10.766;2022-09-09T04:19:02;95263.16;;;14.16;87.14
13407;BME280;6774;48.208;10.766;2022-09-09T04:21:30;95266.25;;;14.13;87.29
13407;BME280;6774;48.208;10.766;2022-09-09T04:24:00;95272.16;;;14.15;87.20
13407;BME280;6774;48.208;10.766;2022-09-09T04:26:28;95273.19;;;14.14;87.38
13407;BME280;6774;48.208;10.766;2022-09-09T04:28:58;95273.78;;;14.16;87.45
13407;BME280;6774;48.208;10.766;2022-09-09T04:31:27;95270.09;;;14.17;87.59
13407;BME280;6774;48.208;10.766;2022-09-09T04:33:56;95278.13;;;14.10;87.10
13407;BME280;6774;48.208;10.766;2022-09-09T04:36:25;95278.53;;;14.07;86.89
13407;BME280;6774;48.208;10.766;2022-09-09T04:38:57;95280.56;;;14.12;86.61
13407;BME280;6774;48.208;10.766;2022-09-09T04:41:25;95277.72;;;14.07;85.88
13407;BME280;6774;48.208;10.766;2022-09-09T04:43:53;95268.25;;;13.92;85.85
13407;BME280;6774;48.208;10.766;2022-09-09T04:46:23;95281.75;;;13.84;85.83
13407;BME280;6774;48.208;10.766;2022-09-09T04:48:51;95276.47;;;13.84;85.57
13407;BME280;6774;48.208;10.766;2022-09-09T04:51:21;95271.59;;;13.81;85.33
13407;BME280;6774;48.208;10.766;2022-09-09T04:53:51;95275.88;;;13.82;85.11
13407;BME280;6774;48.208;10.766;2022-09-09T04:56:20;95272.22;;;13.77;85.67
13407;BME280;6774;48.208;10.766;2022-09-09T04:58:54;95271.22;;;13.71;86.75
13407;BME280;6774;48.208;10.766;2022-09-09T05:01:32;95276.50;;;13.78;86.68
13407;BME280;6774;48.208;10.766;2022-09-09T05:04:02;95265.84;;;13.84;86.37
13407;BME280;6774;48.208;10.766;2022-09-09T05:06:32;95280.09;;;13.90;86.53
13407;BME280;6774;48.208;10.766;2022-09-09T05:09:01;95278.84;;;13.92;86.75
13407;BME280;6774;48.208;10.766;2022-09-09T05:11:30;95274.16;;;13.94;86.80
13407;BME280;6774;48.208;10.766;2022-09-09T05:14:05;95276.97;;;14.00;87.01
13407;BME280;6774;48.208;10.766;2022-09-09T05:16:35;95285.34;;;13.97;87.44
13407;BME280;6774;48.208;10.766;2022-09-09T05:19:03;95274.25;;;14.06;87.05
13407;BME280;6774;48.208;10.766;2022-09-09T05:21:41;95279.91;;;14.16;87.04
13407;BME280;6774;48.208;10.766;2022-09-09T05:24:09;95283.78;;;14.20;87.46
13407;BME280;6774;48.208;10.766;2022-09-09T05:26:38;95291.06;;;14.25;87.45
13407;BME280;6774;48.208;10.766;2022-09-09T05:29:06;95286.09;;;14.35;87.16
13407;BME280;6774;48.208;10.766;2022-09-09T05:31:36;95311.63;;;14.36;87.23
13407;BME280;6774;48.208;10.766;2022-09-09T05:34:09;95307.94;;;14.37;87.43
13407;BME280;6774;48.208;10.766;2022-09-09T05:36:38;95312.63;;;14.35;88.38
13407;BME280;6774;48.208;10.766;2022-09-09T05:39:06;95317.31;;;14.46;88.27
13407;BME280;6774;48.208;10.766;2022-09-09T05:41:34;95321.19;;;14.69;88.24
13407;BME280;6774;48.208;10.766;2022-09-09T05:44:03;95323.22;;;14.73;88.88
13407;BME280;6774;48.208;10.766;2022-09-09T05:46:37;95334.75;;;14.86;88.66
13407;BME280;6774;48.208;10.766;2022-09-09T05:49:05;95326.13;;;15.08;87.96
13407;BME280;6774;48.208;10.766;2022-09-09T05:51:35;95328.91;;;15.20;88.08
13407;BME280;6774;48.208;10.766;2022-09-09T05:54:11;95333.25;;;15.33;87.79
13407;BME280;6774;48.208;10.766;2022-09-09T05:56:44;95332.38;;;15.39;87.75
13407;BME280;6774;48.208;10.766;2022-09-09T05:59:17;95340.31;;;15.64;87.56
13407;BME280;6774;48.208;10.766;2022-09-09T06:01:46;95332.69;;;15.68;87.38
13407;BME280;6774;48.208;10.766;2022-09-09T06:04:23;95341.69;;;15.85;87.01
13407;BME280;6774;48.208;10.766;2022-09-09T06:06:51;95338.78;;;15.86;86.77
13407;BME280;6774;48.208;10.766;2022-09-09T06:09:21;95341.06;;;16.01;86.84
13407;BME280;6774;48.208;10.766;2022-09-09T06:11:49;95334.47;;;16.04;86.77
13407;BME280;6774;48.208;10.766;2022-09-09T06:14:19;95340.59;;;16.04;86.30
13407;BME280;6774;48.208;10.766;2022-09-09T06:16:51;95339.47;;;16.12;86.24
13407;BME280;6774;48.208;10.766;2022-09-09T06:19:25;95342.75;;;16.26;85.90
13407;BME280;6774;48.208;10.766;2022-09-09T06:21:55;95338.97;;;16.33;85.73
13407;BME280;6774;48.208;10.766;2022-09-09T06:24:24;95347.19;;;16.32;85.58
13407;BME280;6774;48.208;10.766;2022-09-09T06:26:53;95346.47;;;16.25;85.55
13407;BME280;6774;48.208;10.766;2022-09-09T06:29:26;95342.41;;;16.22;84.89
13407;BME280;6774;48.208;10.766;2022-09-09T06:31:56;95335.81;;;16.25;84.22
13407;BME280;6774;48.208;10.766;2022-09-09T06:34:26;95338.16;;;16.33;83.72
13407;BME280;6774;48.208;10.766;2022-09-09T06:36:56;95320.34;;;16.45;83.85
13407;BME280;6774;48.208;10.766;2022-09-09T06:39:29;95330.09;;;16.51;84.16
13407;BME280;6774;48.208;10.766;2022-09-09T06:41:58;95336.66;;;16.37;83.29
13407;BME280;6774;48.208;10.766;2022-09-09T06:44:44;95338.91;;;16.63;83.23
13407;BME280;6774;48.208;10.766;2022-09-09T06:47:22;95347.06;;;16.68;83.31
13407;BME280;6774;48.208;10.766;2022-09-09T06:49:52;95329.84;;;16.83;83.01
13407;BME280;6774;48.208;10.766;2022-09-09T06:52:20;95330.91;;;16.63;83.25
13407;BME280;6774;48.208;10.766;2022-09-09T06:54:49;95328.25;;;16.63;84.37
13407;BME280;6774;48.208;10.766;2022-09-09T06:57:16;95334.38;;;16.64;85.01
13407;BME280;6774;48.208;10.766;2022-09-09T07:00:10;95343.53;;;16.56;85.26
13407;BME280;6774;48.208;10.766;2022-09-09T07:02:41;95350.16;;;16.65;84.52
13407;BME280;6774;48.208;10.766;2022-09-09T07:05:12;95355.88;;;16.81;83.43
13407;BME280;6774;48.208;10.766;2022-09-09T07:07:43;95352.44;;;16.92;83.19
13407;BME280;6774;48.208;10.766;2022-09-09T07:10:13;95363.53;;;16.89;83.37
13407;BME280;6774;48.208;10.766;2022-09-09T07:12:43;95367.72;;;17.08;82.85
13407;BME280;6774;48.208;10.766;2022-09-09T07:15:12;95363.09;;;17.15;83.14
13407;BME280;6774;48.208;10.766;2022-09-09T07:17:45;95363.56;;;17.24;82.36
13407;BME280;6774;48.208;10.766;2022-09-09T07:20:14;95356.16;;;17.38;80.63
13407;BME280;6774;48.208;10.766;2022-09-09T07:22:42;95357.41;;;17.35;80.81
13407;BME280;6774;48.208;10.766;2022-09-09T07:25:10;95354.84;;;17.40;80.97
13407;BME280;6774;48.208;10.766;2022-09-09T07:27:38;95361.56;;;17.43;81.21
13407;BME280;6774;48.208;10.766;2022-09-09T07:30:08;95362.50;;;17.48;80.55
13407;BME280;6774;48.208;10.766;2022-09-09T07:32:36;95359.94;;;17.53;80.29
13407;BME280;6774;48.208;10.766;2022-09-09T07:35:07;95369.91;;;17.58;80.30
13407;BME280;6774;48.208;10.766;2022-09-09T07:37:36;95363.06;;;17.62;80.61
13407;BME280;6774;48.208;10.766;2022-09-09T07:40:05;95373.28;;;17.65;80.39
13407;BME280;6774;48.208;10.766;2022-09-09T07:42:33;95364.09;;;17.73;80.53
13407;BME280;6774;48.208;10.766;2022-09-09T07:45:00;95361.06;;;17.81;80.50
13407;BME280;6774;48.208;10.766;2022-09-09T07:47:30;95370.81;;;17.87;80.28
13407;BME280;6774;48.208;10.766;2022-09-09T07:49:58;95375.78;;;17.95;80.05
13407;BME280;6774;48.208;10.766;2022-09-09T07:52:31;95362.31;;;18.02;79.78
13407;BME280;6774;48.208;10.766;2022-09-09T07:55:03;95364.72;;;18.03;80.07
13407;BME280;6774;48.208;10.766;2022-09-09T07:57:32;95363.44;;;18.06;79.63
13407;BME280;6774;48.208;10.766;2022-09-09T08:00:00;95373.81;;;18.19;80.30
13407;BME280;6774;48.208;10.766;2022-09-09T08:02:37;95375.34;;;18.43;81.11
13407;BME280;6774;48.208;10.766;2022-09-09T08:05:07;95364.78;;;18.48;79.26
13407;BME280;6774;48.208;10.766;2022-09-09T08:07:38;95362.47;;;18.69;79.04
13407;BME280;6774;48.208;10.766;2022-09-09T08:10:07;95364.13;;;18.87;77.71
13407;BME280;6774;48.208;10.766;2022-09-09T08:12:36;95367.34;;;19.06;78.09
13407;BME280;6774;48.208;10.766;2022-09-09T08:15:07;95371.91;;;19.05;77.10
13407;BME280;6774;48.208;10.766;2022-09-09T08:17:36;95368.00;;;19.13;76.27
13407;BME280;6774;48.208;10.766;2022-09-09T08:20:06;95385.88;;;19.29;75.98
13407;BME280;6774;48.208;10.766;2022-09-09T08:22:34;95384.69;;;19.20;76.38
13407;BME280;6774;48.208;10.766;2022-09-09T08:25:06;95385.72;;;19.36;75.78
13407;BME280;6774;48.208;10.766;2022-09-09T08:27:36;95388.25;;;19.42;75.30
13407;BME280;6774;48.208;10.766;2022-09-09T08:30:06;95388.88;;;19.49;73.98
13407;BME280;6774;48.208;10.766;2022-09-09T08:32:34;95385.81;;;19.57;74.07
13407;BME280;6774;48.208;10.766;2022-09-09T08:35:02;95397.34;;;19.58;74.28
13407;BME280;6774;48.208;10.766;2022-09-09T08:37:34;95398.13;;;19.58;73.39
13407;BME280;6774;48.208;10.766;2022-09-09T08:40:02;95389.59;;;19.62;74.11
13407;BME280;6774;48.208;10.766;2022-09-09T08:42:37;95388.88;;;19.66;73.59
13407;BME280;6774;48.208;10.766;2022-09-09T08:45:22;95399.91;;;19.70;73.65
13407;BME280;6774;48.208;10.766;2022-09-09T08:48:03;95398.03;;;19.70;72.77
13407;BME280;6774;48.208;10.766;2022-09-09T08:50:36;95392.41;;;19.72;73.22
13407;BME280;6774;48.208;10.766;2022-09-09T08:53:21;95402.28;;;19.88;72.26
13407;BME280;6774;48.208;10.766;2022-09-09T08:55:53;95395.06;;;19.88;72.29
13407;BME280;6774;48.208;10.766;2022-09-09T08:58:31;95397.44;;;19.85;70.86
13407;BME280;6774;48.208;10.766;2022-09-09T09:01:17;95393.56;;;19.98;71.77
13407;BME280;6774;48.208;10.766;2022-09-09T09:03:59;95397.91;;;19.82;71.80
13407;BME280;6774;48.208;10.766;2022-09-09T09:06:45;95393.50;;;19.93;72.14
13407;BME280;6774;48.208;10.766;2022-09-09T09:09:22;95398.53;;;19.89;72.00
13407;BME280;6774;48.208;10.766;2022-09-09T09:11:54;95397.06;;;19.98;71.56
13407;BME280;6774;48.208;10.766;2022-09-09T09:14:35;95406.78;;;20.04;71.87
13407;BME280;6774;48.208;10.766;2022-09-09T09:17:11;95399.13;;;20.13;72.11
13407;BME280;6774;48.208;10.766;2022-09-09T09:19:42;95407.97;;;20.13;71.86
13407;BME280;6774;48.208;10.766;2022-09-09T09:22:17;95407.25;;;20.01;71.90
13407;BME280;6774;48.208;10.766;2022-09-09T09:24:52;95398.22;;;20.07;71.05
13407;BME280;6774;48.208;10.766;2022-09-09T09:27:31;95395.25;;;20.04;70.57
13407;BME280;6774;48.208;10.766;2022-09-09T09:30:12;95399.84;;;20.08;71.64
13407;BME280;6774;48.208;10.766;2022-09-09T09:32:55;95400.72;;;20.14;70.75
13407;BME280;6774;48.208;10.766;2022-09-09T09:35:24;95393.81;;;20.18;70.66
13407;BME280;6774;48.208;10.766;2022-09-09T09:37:52;95397.69;;;20.05;72.15
13407;BME280;6774;48.208;10.766;2022-09-09T09:40:48;95401.34;;;20.21;71.67
13407;BME280;6774;48.208;10.766;2022-09-09T09:43:20;95404.66;;;20.06;71.13
13407;BME280;6774;48.208;10.766;2022-09-09T09:45:51;95405.28;;;20.13;72.50
13407;BME280;6774;48.208;10.766;2022-09-09T09:48:39;95409.50;;;19.87;71.90
13407;BME280;6774;48.208;10.766;2022-09-09T09:51:10;95407.47;;;19.95;72.19
13407;BME280;6774;48.208;10.766;2022-09-09T09:53:41;95407.25;;;20.01;71.88
13407;BME280;6774;48.208;10.766;2022-09-09T09:56:14;95400.50;;;19.94;72.25
13407;BME280;6774;48.208;10.766;2022-09-09T09:58:50;95409.34;;;19.94;73.12
13407;BME280;6774;48.208;10.766;2022-09-09T10:01:25;95411.63;;;20.07;72.14
13407;BME280;6774;48.208;10.766;2022-09-09T10:03:58;95411.25;;;20.21;72.46
13407;BME280;6774;48.208;10.766;2022-09-09T10:06:30;95409.69;;;20.25;72.04
13407;BME280;6774;48.208;10.766;2022-09-09T10:08:59;95414.00;;;20.26;72.63
13407;BME280;6774;48.208;10.766;2022-09-09T10:11:41;95416.13;;;20.24;72.91
13407;BME280;6774;48.208;10.766;2022-09-09T10:14:17;95411.63;;;20.07;73.86
13407;BME280;6774;48.208;10.766;2022-09-09T10:16:58;95410.94;;;19.95;73.38
13407;BME280;6774;48.208;10.766;2022-09-09T10:19:30;95401.91;;;20.01;73.63
13407;BME280;6774;48.208;10.766;2022-09-09T10:22:11;95411.09;;;19.67;74.54
13407;BME280;6774;48.208;10.766;2022-09-09T10:25:04;95408.28;;;19.95;73.69
13407;BME280;6774;48.208;10.766;2022-09-09T10:27:47;95404.66;;;20.06;72.96
13407;BME280;6774;48.208;10.766;2022-09-09T10:30:30;95404.41;;;19.86;74.23
13407;BME280;6774;48.208;10.766;2022-09-09T10:33:07;95407.09;;;19.86;74.15
13407;BME280;6774;48.208;10.766;2022-09-09T10:35:43;95404.09;;;19.66;74.52
13407;BME280;6774;48.208;10.766;2022-09-09T10:38:15;95399.09;;;19.91;74.37
13407;BME280;6774;48.208;10.766;2022-09-09T10:41:09;95406.91;;;20.14;73.68
13407;BME280;6774;48.208;10.766;2022-09-09T10:43:50;95399.41;;;20.16;72.85
13407;BME280;6774;48.208;10.766;2022-09-09T10:46:31;95403.13;;;20.37;73.24
13407;BME280;6774;48.208;10.766;2022-09-09T10:49:13;95400.53;;;20.21;74.02
13407;BME280;6774;48.208;10.766;2022-09-09T10:51:53;95395.66;;;20.17;73.35
13407;BME280;6774;48.208;10.766;2022-09-09T10:54:35;95389.66;;;20.54;72.52
13407;BME280;6774;48.208;10.766;2022-09-09T10:57:11;95401.75;;;20.84;71.13
13407;BME280;6774;48.208;10.766;2022-09-09T10:59:44;95396.59;;;21.04;70.64
13407;BME280;6774;48.208;10.766;2022-09-09T11:02:18;95393.56;;;21.27;70.16
13407;BME280;6774;48.208;10.766;2022-09-09T11:04:53;95382.16;;;21.47;67.92
13407;BME280;6774;48.208;10.766;2022-09-09T11:07:28;95387.66;;;21.68;68.13
13407;BME280;6774;48.208;10.766;2022-09-09T11:10:05;95391.75;;;21.80;68.00
13407;BME280;6774;48.208;10.766;2022-09-09T11:12:36;95391.13;;;21.63;66.43
13407;BME280;6774;48.208;10.766;2022-09-09T11:15:14;95386.34;;;21.75;68.17
13407;BME280;6774;48.208;10.766;2022-09-09T11:17:46;95384.00;;;21.89;67.74
13407;BME280;6774;48.208;10.766;2022-09-09T11:20:17;95384.31;;;22.03;69.04
13407;BME280;6774;48.208;10.766;2022-09-09T11:22:48;95378.91;;;21.93;66.69
13407;BME280;6774;48.208;10.766;2022-09-09T11:25:18;95381.25;;;21.74;66.26
13407;BME280;6774;48.208;10.766;2022-09-09T11:28:06;95370.72;;;21.62;67.70
13407;BME280;6774;48.208;10.766;2022-09-09T11:30:45;95374.88;;;21.90;67.68
13407;BME280;6774;48.208;10.766;2022-09-09T11:33:46;95374.91;;;21.95;66.22
13407;BME280;6774;48.208;10.766;2022-09-09T11:36:48;95372.50;;;21.99;65.66
13407;BME280;6774;48.208;10.766;2022-09-09T11:39:38;95371.97;;;21.97;67.38
13407;BME280;6774;48.208;10.766;2022-09-09T11:42:16;95376.81;;;22.00;66.02
13407;BME280;6774;48.208;10.766;2022-09-09T11:44:45;95376.88;;;22.10;66.42
13407;BME280;6774;48.208;10.766;2022-09-09T11:47:20;95382.31;;;22.25;67.47
13407;BME280;6774;48.208;10.766;2022-09-09T11:49:49;95375.88;;;22.31;66.57
13407;BME280;6774;48.208;10.766;2022-09-09T11:52:34;95374.34;;;21.93;66.76
13407;BME280;6774;48.208;10.766;2022-09-09T11:55:09;95378.94;;;21.98;67.97
13407;BME280;6774;48.208;10.766;2022-09-09T11:57:38;95370.00;;;21.77;66.54
13407;BME280;6774;48.208;10.766;2022-09-09T12:00:29;95363.41;;;21.57;65.64
13407;BME280;6774;48.208;10.766;2022-09-09T12:02:59;95363.72;;;21.66;65.30
13407;BME280;6774;48.208;10.766;2022-09-09T12:05:36;95365.97;;;21.84;66.33
13407;BME280;6774;48.208;10.766;2022-09-09T12:08:09;95371.91;;;21.86;65.37
13407;BME280;6774;48.208;10.766;2022-09-09T12:10:39;95364.41;;;21.89;65.52
13407;BME280;6774;48.208;10.766;2022-09-09T12:13:08;95366.09;;;22.05;65.79
13407;BME280;6774;48.208;10.766;2022-09-09T12:15:47;95371.38;;;21.90;65.06
13407;BME280;6774;48.208;10.766;2022-09-09T12:18:22;95378.91;;;21.93;64.49
13407;BME280;6774;48.208;10.766;2022-09-09T12:20:55;95376.00;;;21.99;66.52
13407;BME280;6774;48.208;10.766;2022-09-09T12:23:32;95376.88;;;22.10;64.22
13407;BME280;6774;48.208;10.766;2022-09-09T12:26:21;95369.63;;;22.10;64.05
13407;BME280;6774;48.208;10.766;2022-09-09T12:28:58;95371.38;;;21.90;64.05
13407;BME280;6774;48.208;10.766;2022-09-09T12:31:33;95362.28;;;22.01;65.69
13407;BME280;6774;48.208;10.766;2022-09-09T12:34:09;95366.06;;;22.00;64.76
13407;BME280;6774;48.208;10.766;2022-09-09T12:36:39;95359.47;;;21.75;64.24
13407;BME280;6774;48.208;10.766;2022-09-09T12:39:17;95346.47;;;21.52;64.61
13407;BME280;6774;48.208;10.766;2022-09-09T12:41:51;95352.28;;;21.39;65.23
13407;BME280;6774;48.208;10.766;2022-09-09T12:44:24;95352.75;;;21.68;65.17
13407;BME280;6774;48.208;10.766;2022-09-09T12:46:55;95351.38;;;21.60;64.56
13407;BME280;6774;48.208;10.766;2022-09-09T12:49:30;95355.13;;;21.59;64.97
13407;BME280;6774;48.208;10.766;2022-09-09T12:52:02;95351.53;;;21.96;65.16
13407;BME280;6774;48.208;10.766;2022-09-09T12:54:34;95344.91;;;22.13;64.96
13407;BME280;6774;48.208;10.766;2022-09-09T12:57:04;95342.53;;;22.37;63.43
13407;BME280;6774;48.208;10.766;2022-09-09T12:59:36;95337.50;;;22.71;64.63
13407;BME280;6774;48.208;10.766;2022-09-09T13:02:18;95331.31;;;22.71;62.46
13407;BME280;6774;48.208;10.766;2022-09-09T13:04:47;95332.91;;;22.67;61.33
13407;BME280;6774;48.208;10.766;2022-09-09T13:07:17;95328.34;;;22.52;60.01
13407;BME280;6774;48.208;10.766;2022-09-09T13:09:48;95328.59;;;22.66;62.47
13407;BME280;6774;48.208;10.766;2022-09-09T13:12:18;95321.09;;;22.68;62.42
13407;BME280;6774;48.208;10.766;2022-09-09T13:14:48;95312.50;;;22.91;61.40
13407;BME280;6774;48.208;10.766;2022-09-09T13:17:20;95310.63;;;23.02;60.37
13407;BME280;6774;48.208;10.766;2022-09-09T13:19:50;95314.09;;;22.77;59.58
13407;BME280;6774;48.208;10.766;2022-09-09T13:22:22;95313.31;;;22.97;59.72
13407;BME280;6774;48.208;10.766;2022-09-09T13:25:00;95319.78;;;22.91;60.25
13407;BME280;6774;48.208;10.766;2022-09-09T13:27:32;95314.66;;;22.99;61.69
13407;BME280;6774;48.208;10.766;2022-09-09T13:30:01;95306.28;;;22.81;58.49
13407;BME280;6774;48.208;10.766;2022-09-09T13:32:28;95304.44;;;23.02;58.45
13407;BME280;6774;48.208;10.766;2022-09-09T13:34:59;95308.19;;;22.80;60.30